createdAt,value
2023-03-15T00:09:39.532Z,5.15
2023-03-15T00:24:29.919Z,5.07
2023-03-15T00:39:19.268Z,4.89
2023-03-15T00:54:08.974Z,4.85
2023-03-15T01:08:59.196Z,4.73
2023-03-15T01:23:49.942Z,4.66
2023-03-15T01:38:39.746Z,4.47
2023-03-15T01:53:30.186Z,4.42
2023-03-15T02:08:20.451Z,4.25
2023-03-15T02:23:09.965Z,4.13
2023-03-15T02:38:00.311Z,4.07
2023-03-15T02:52:49.790Z,3.86
2023-03-15T03:07:39.595Z,3.81
2023-03-15T03:22:31.225Z,3.70
2023-03-15T03:37:21.006Z,3.63
2023-03-15T03:52:10.863Z,3.46
2023-03-15T04:07:00.960Z,3.38
2023-03-15T04:21:51.669Z,3.27
2023-03-15T04:36:40.835Z,3.10
2023-03-15T04:51:30.187Z,3.06
2023-03-15T05:06:20.615Z,3.02
2023-03-15T05:21:10.762Z,2.88
2023-03-15T05:36:00.374Z,2.91
2023-03-15T05:50:49.884Z,2.92
2023-03-15T06:05:39.909Z,2.93
2023-03-15T06:20:30.267Z,3.06
2023-03-15T06:35:20.789Z,3.31
2023-03-15T06:50:11.940Z,3.62
2023-03-15T07:05:02.463Z,3.89
2023-03-15T07:19:56.543Z,4.31
2023-03-15T07:34:44.025Z,4.63
2023-03-15T07:49:35.631Z,4.91
2023-03-15T08:04:25.509Z,5.00
2023-03-15T08:19:16.637Z,5.59
2023-03-15T08:34:07.938Z,5.89
2023-03-15T08:48:59.728Z,6.25
2023-03-15T09:03:52.044Z,6.81
2023-03-15T09:18:42.309Z,6.82
2023-03-15T09:33:33.184Z,7.04
2023-03-15T09:48:31.170Z,7.68
2023-03-15T10:03:32.515Z,7.61
2023-03-15T10:18:28.438Z,8.25
2023-03-15T10:33:22.249Z,8.21
2023-03-15T10:48:15.330Z,8.00
2023-03-15T11:03:07.998Z,7.69
2023-03-15T11:17:59.115Z,6.91
2023-03-15T11:32:49.609Z,7.10
2023-03-15T11:47:55.978Z,7.22
2023-03-15T12:02:50.585Z,7.02
2023-03-15T12:17:50.776Z,7.53
2023-03-15T12:32:46.353Z,8.00
2023-03-15T12:47:52.220Z,8.77
2023-03-15T13:02:51.901Z,9.49
2023-03-15T13:17:48.248Z,8.77
2023-03-15T13:32:37.959Z,7.28
2023-03-15T13:47:27.346Z,7.47
2023-03-15T14:02:28.256Z,7.65
2023-03-15T14:17:24.670Z,7.32
2023-03-15T14:32:24.392Z,7.70
2023-03-15T14:47:19.844Z,7.80
2023-03-15T15:02:10.124Z,7.89
2023-03-15T15:17:00.719Z,8.00
2023-03-15T15:31:51.527Z,8.00
2023-03-15T15:46:42.038Z,7.91
2023-03-15T16:01:32.490Z,8.01
2023-03-15T16:16:23.506Z,8.01
2023-03-15T16:31:14.041Z,7.92
2023-03-15T16:46:16.655Z,7.84
2023-03-15T17:01:11.358Z,7.75
2023-03-15T17:16:02.024Z,7.63
2023-03-15T17:30:59.596Z,7.43
2023-03-15T17:45:42.019Z,7.19
2023-03-15T18:00:31.876Z,7.04
2023-03-15T18:15:21.507Z,6.85
2023-03-15T18:30:11.604Z,6.76
2023-03-15T18:59:52.961Z,6.66
2023-03-15T19:14:43.711Z,6.62
2023-03-15T19:29:34.556Z,6.54
2023-03-15T19:44:24.788Z,6.35
2023-03-15T19:59:14.362Z,6.35
2023-03-15T20:28:55.366Z,6.15
2023-03-15T20:43:44.712Z,5.97
2023-03-15T20:58:35.033Z,5.77
2023-03-15T21:13:25.681Z,5.68
2023-03-15T21:28:15.723Z,5.55
2023-03-15T21:43:05.794Z,5.43
2023-03-15T21:57:55.689Z,5.36
2023-03-15T22:12:45.452Z,5.14
2023-03-15T22:27:35.574Z,5.09
2023-03-15T22:42:26.431Z,4.97
2023-03-15T22:57:17.217Z,4.84
2023-03-15T23:12:08.605Z,4.66
2023-03-15T23:27:00.195Z,4.67
2023-03-15T23:41:49.967Z,4.59
2023-03-15T23:56:40.149Z,4.55
